Time;durP1;ratioP1;P1;durP2;ratioP2;P2;SDS_P1;SDS_P2;PMS_P1;PMS_P2;Temp;Humidity;BMP_temperature;BMP_pressure;BME280_temperature;BME280_humidity;BME280_pressure;Samples;Min_cycle;Max_cycle;Signal;HPM_P1;HPM_P2
2021/10/04 00:02:07;;;;;;;7.70;6.87;;;;;;;12.74;79.33;99114.16;5026650;28;20226;-80
2021/10/04 00:04:36;;;;;;;7.47;6.67;;;;;;;12.61;80.12;99109.94;5067119;28;20218;-79
2021/10/04 00:07:03;;;;;;;7.50;6.80;;;;;;;12.49;80.42;99105.72;5050047;28;20299;-79
2021/10/04 00:09:32;;;;;;;7.87;7.17;;;;;;;12.54;80.66;99135.34;5067300;28;20279;-79
2021/10/04 00:12:03;;;;;;;8.07;7.27;;;;;;;12.51;80.77;99146.56;5065908;28;20226;-78
2021/10/04 00:14:33;;;;;;;9.63;7.47;;;;;;;12.43;81.05;99144.28;5067396;28;20229;-79
2021/10/04 00:17:02;;;;;;;8.03;7.23;;;;;;;12.40;81.11;99144.78;5078639;28;20204;-78
2021/10/04 00:19:34;;;;;;;7.97;7.07;;;;;;;12.34;81.65;99138.50;5070237;28;20315;-79
2021/10/04 00:22:02;;;;;;;8.93;6.93;;;;;;;12.27;82.17;99130.59;5087018;28;20635;-79
2021/10/04 00:24:29;;;;;;;8.67;7.23;;;;;;;12.24;81.88;99133.78;5070805;28;20193;-79
2021/10/04 00:26:56;;;;;;;7.77;7.07;;;;;;;12.23;82.04;99152.81;5086832;28;20221;-79
2021/10/04 00:29:28;;;;;;;8.33;7.37;;;;;;;12.09;82.11;99133.50;5087393;28;20233;-79
2021/10/04 00:31:58;;;;;;;8.83;7.93;;;;;;;12.05;81.93;99140.41;5086694;28;20225;-79
2021/10/04 00:34:28;;;;;;;8.40;7.60;;;;;;;12.04;82.27;99143.34;5087266;28;20226;-79
2021/10/04 00:36:54;;;;;;;8.13;7.10;;;;;;;11.93;82.59;99125.41;5068520;28;20223;-79
2021/10/04 00:39:22;;;;;;;7.70;6.90;;;;;;;11.98;82.45;99137.06;5069496;28;20291;-78
2021/10/04 00:41:54;;;;;;;7.43;6.73;;;;;;;11.94;82.43;99151.22;5068020;28;20551;-78
2021/10/04 00:44:21;;;;;;;7.93;7.17;;;;;;;11.88;82.66;99152.97;5085385;28;20586;-79
2021/10/04 00:46:50;;;;;;;8.20;7.33;;;;;;;11.82;82.82;99144.00;5086069;28;20236;-79
2021/10/04 00:49:19;;;;;;;7.97;7.17;;;;;;;11.80;82.31;99138.03;5086589;28;20217;-78
2021/10/04 00:51:46;;;;;;;8.20;7.40;;;;;;;11.82;83.00;99151.25;5088237;28;20209;-79
2021/10/04 00:54:13;;;;;;;9.00;7.27;;;;;;;11.78;82.72;99156.28;5078041;23;20231;-78
2021/10/04 00:56:43;;;;;;;8.47;7.10;;;;;;;11.76;82.42;99149.50;4967324;28;20222;-79
2021/10/04 00:59:12;;;;;;;7.97;7.13;;;;;;;11.71;82.47;99146.72;5033976;23;20226;-80
2021/10/04 01:01:45;;;;;;;8.37;7.57;;;;;;;11.70;82.84;99145.06;5020377;23;20242;-80
2021/10/04 01:04:15;;;;;;;9.00;7.20;;;;;;;11.74;82.68;99152.44;4993714;28;20183;-80
2021/10/04 01:06:43;;;;;;;7.63;6.90;;;;;;;11.59;83.15;99133.31;5009143;28;20247;-81
2021/10/04 01:09:11;;;;;;;7.93;7.13;;;;;;;11.78;83.07;99163.50;5009145;28;20290;-81
2021/10/04 01:11:53;;;;;;;8.37;6.63;;;;;;;11.79;83.10;99163.28;5008994;28;20183;-81
2021/10/04 01:14:24;;;;;;;7.60;6.90;;;;;;;11.79;82.76;99157.91;5010807;28;20218;-80
2021/10/04 01:17:13;;;;;;;9.40;7.70;;;;;;;11.81;82.73;99171.06;5010197;28;20231;-81
2021/10/04 01:19:53;;;;;;;8.60;7.70;;;;;;;11.76;83.11;99166.41;4991531;23;20227;-78
2021/10/04 01:22:22;;;;;;;7.73;7.03;;;;;;;11.71;82.97;99165.50;4990688;28;20247;-80
2021/10/04 01:24:53;;;;;;;7.90;7.20;;;;;;;11.69;83.02;99168.41;4990305;28;20224;-81
2021/10/04 01:27:21;;;;;;;10.60;7.43;;;;;;;11.61;82.86;99158.06;4988862;28;20235;-81
2021/10/04 01:29:48;;;;;;;9.47;8.43;;;;;;;11.60;83.30;99164.47;4988235;28;20710;-81
2021/10/04 01:32:20;;;;;;;8.37;7.57;;;;;;;11.53;83.67;99158.41;4990308;28;20196;-81
2021/10/04 01:34:47;;;;;;;8.20;7.40;;;;;;;11.56;83.26;99167.88;4989058;28;20589;-81
2021/10/04 01:37:14;;;;;;;7.50;6.80;;;;;;;11.47;83.21;99168.25;5002268;23;20223;-78
2021/10/04 01:39:42;;;;;;;7.13;6.43;;;;;;;11.43;83.05;99171.63;4976526;28;20237;-79
2021/10/04 01:42:09;;;;;;;7.73;6.97;;;;;;;11.37;82.96;99178.75;4992607;28;20312;-78
2021/10/04 01:44:56;;;;;;;7.80;7.00;;;;;;;11.30;83.22;99183.41;4992335;28;20223;-80
2021/10/04 01:47:23;;;;;;;7.80;6.97;;;;;;;11.22;83.63;99167.69;5008292;28;20230;-81
2021/10/04 01:49:51;;;;;;;8.23;7.07;;;;;;;11.27;83.56;99173.16;5008630;28;20299;-80
2021/10/04 01:52:32;;;;;;;8.60;7.70;;;;;;;11.22;83.61;99175.72;5008490;28;20227;-81
2021/10/04 01:55:05;;;;;;;8.67;7.77;;;;;;;11.28;83.11;99182.03;5008828;28;20651;-80
2021/10/04 01:57:34;;;;;;;9.43;6.90;;;;;;;11.22;83.60;99178.41;5008072;28;20223;-80
2021/10/04 02:00:18;;;;;;;7.93;7.13;;;;;;;11.25;83.60;99185.16;4992496;28;20234;-80
2021/10/04 02:02:53;;;;;;;7.97;7.17;;;;;;;11.24;83.84;99180.88;5008444;28;20297;-81
2021/10/04 02:05:21;;;;;;;7.60;6.90;;;;;;;11.20;83.89;99187.75;4991650;28;20322;-80
2021/10/04 02:07:52;;;;;;;8.63;7.73;;;;;;;11.18;83.96;99181.78;4976625;28;20253;-80
2021/10/04 02:10:26;;;;;;;8.17;7.37;;;;;;;11.14;84.01;99189.50;5009522;28;20218;-81
2021/10/04 02:12:54;;;;;;;7.83;7.10;;;;;;;11.12;84.09;99185.41;4978079;28;20227;-81
2021/10/04 02:15:27;;;;;;;7.77;7.07;;;;;;;11.09;83.83;99191.22;5009219;28;20234;-80
2021/10/04 02:17:58;;;;;;;7.90;7.20;;;;;;;11.08;83.68;99193.09;5016587;23;20191;-80
2021/10/04 02:20:31;;;;;;;7.97;7.17;;;;;;;11.03;83.98;99184.94;4990832;28;20212;-81
2021/10/04 02:23:05;;;;;;;8.63;7.03;;;;;;;10.91;83.75;99179.59;4992556;28;20210;-81
2021/10/04 02:25:53;;;;;;;7.93;7.13;;;;;;;10.97;84.06;99193.91;5009546;28;20227;-81
2021/10/04 02:28:21;;;;;;;8.47;7.50;;;;;;;10.90;83.95;99193.22;4991138;28;20243;-80
2021/10/04 02:30:48;;;;;;;7.73;7.03;;;;;;;10.89;84.26;99195.06;5007744;28;20231;-81
2021/10/04 02:33:18;;;;;;;9.43;6.97;;;;;;;10.86;83.80;99198.22;4991325;28;20239;-80
2021/10/04 02:35:47;;;;;;;8.20;7.30;;;;;;;10.84;84.02;99205.66;4990613;28;20227;-80
2021/10/04 02:38:14;;;;;;;8.47;7.57;;;;;;;10.80;84.17;99195.63;5007652;28;20223;-80
2021/10/04 02:40:41;;;;;;;8.17;7.37;;;;;;;10.80;84.39;99195.63;5006967;28;20255;-80
2021/10/04 02:43:10;;;;;;;8.63;7.60;;;;;;;10.80;84.29;99195.63;5006449;28;20211;-80
2021/10/04 02:45:40;;;;;;;8.00;7.20;;;;;;;10.86;84.07;99210.81;5008539;28;20250;-80
2021/10/04 02:48:08;;;;;;;7.90;7.10;;;;;;;10.79;84.33;99202.88;4982714;28;20235;-80
2021/10/04 02:50:35;;;;;;;7.73;6.97;;;;;;;10.79;84.33;99213.59;4952417;29;20209;-80
2021/10/04 02:53:07;;;;;;;7.83;6.97;;;;;;;10.80;84.23;99219.75;4970907;29;20193;-80
2021/10/04 02:55:42;;;;;;;8.93;8.03;;;;;;;10.75;84.00;99207.06;4952938;29;20227;-80
2021/10/04 02:58:08;;;;;;;7.90;7.10;;;;;;;10.78;84.32;99219.97;4984906;28;20242;-80
2021/10/04 03:00:38;;;;;;;9.43;7.87;;;;;;;10.76;84.12;99218.59;4982669;28;20311;-80
2021/10/04 03:03:22;;;;;;;9.97;7.50;;;;;;;10.77;84.21;99222.91;4969446;28;20236;-80
2021/10/04 03:05:50;;;;;;;7.87;7.07;;;;;;;10.74;84.18;99220.66;4982173;23;20292;-80
2021/10/04 03:08:21;;;;;;;8.17;7.37;;;;;;;10.72;84.29;99223.59;5030244;28;20234;-80
2021/10/04 03:10:52;;;;;;;7.47;6.77;;;;;;;10.70;84.25;99228.38;5031838;28;20182;-80
2021/10/04 03:13:21;;;;;;;8.27;7.47;;;;;;;10.68;84.41;99226.97;5030757;28;20222;-80
2021/10/04 03:15:48;;;;;;;7.73;6.93;;;;;;;10.73;84.36;99235.13;5047793;28;20234;-80
2021/10/04 03:18:15;;;;;;;7.93;7.17;;;;;;;10.65;84.39;99232.78;5048617;28;20313;-80
2021/10/04 03:20:43;;;;;;;7.63;6.87;;;;;;;10.63;84.06;99232.19;5049688;23;20236;-80
2021/10/04 03:23:10;;;;;;;8.33;7.30;;;;;;;10.61;84.18;99221.69;5031599;28;20249;-80
2021/10/04 03:25:37;;;;;;;8.27;7.30;;;;;;;10.54;83.93;99216.44;5046221;28;20252;-80
2021/10/04 03:28:07;;;;;;;8.20;6.97;;;;;;;10.65;84.40;99232.78;5045415;28;20269;-80
2021/10/04 03:30:35;;;;;;;8.40;7.07;;;;;;;10.64;84.02;99237.31;5047782;28;20222;-80
2021/10/04 03:33:04;;;;;;;7.67;6.87;;;;;;;10.61;84.12;99235.09;5149747;23;20210;-80
2021/10/04 03:35:39;;;;;;;7.90;7.10;;;;;;;10.47;84.29;99215.72;5027999;28;20269;-80
2021/10/04 03:38:06;;;;;;;7.90;7.20;;;;;;;10.51;84.24;99232.97;5030090;28;20234;-80
2021/10/04 03:40:44;;;;;;;7.63;6.70;;;;;;;10.56;84.08;99238.47;5026784;28;20231;-80
2021/10/04 03:43:16;;;;;;;7.57;6.87;;;;;;;10.44;84.36;99220.72;5028732;28;20253;-80
2021/10/04 03:45:48;;;;;;;7.57;6.87;;;;;;;10.52;84.34;99234.63;5045073;23;20244;-80
2021/10/04 03:48:15;;;;;;;8.53;7.23;;;;;;;10.56;84.18;99251.84;5013379;23;20250;-80
2021/10/04 03:50:44;;;;;;;8.13;7.37;;;;;;;10.51;84.24;99241.00;5034328;23;20229;-80
2021/10/04 03:53:12;;;;;;;9.10;6.87;;;;;;;10.58;84.37;99254.31;5014183;28;20225;-80
2021/10/04 03:56:02;;;;;;;8.10;7.30;;;;;;;10.54;84.39;99247.78;5037796;28;20273;-80
2021/10/04 03:58:29;;;;;;;7.70;7.00;;;;;;;10.45;84.42;99251.84;5034395;28;20210;-80
2021/10/04 04:00:56;;;;;;;7.57;6.87;;;;;;;10.46;84.57;99242.72;5040913;28;20226;-80
2021/10/04 04:03:30;;;;;;;7.90;6.93;;;;;;;10.53;84.47;99267.56;5048387;28;20489;-80
2021/10/04 04:05:57;;;;;;;8.00;6.87;;;;;;;10.44;84.41;99253.69;5054843;23;20236;-80
2021/10/04 04:08:25;;;;;;;7.70;6.90;;;;;;;10.50;84.51;99273.38;5052778;23;20217;-80
2021/10/04 04:10:52;;;;;;;8.80;6.77;;;;;;;10.40;84.45;99257.06;5032732;28;20617;-80
2021/10/04 04:13:28;;;;;;;7.77;7.07;;;;;;;10.39;84.54;99260.78;5038489;23;20197;-80
2021/10/04 04:15:57;;;;;;;7.87;7.07;;;;;;;10.43;84.46;99276.16;5037494;23;20697;-80
2021/10/04 04:18:25;;;;;;;7.77;6.60;;;;;;;10.34;84.40;99269.47;5029108;28;20237;-80
2021/10/04 04:20:52;;;;;;;7.37;6.53;;;;;;;10.41;84.28;99288.13;5012604;28;20195;-80
2021/10/04 04:23:22;;;;;;;7.63;6.93;;;;;;;10.29;84.37;99279.22;5030217;28;20230;-81
2021/10/04 04:26:00;;;;;;;8.37;7.40;;;;;;;10.28;84.63;99291.81;5032266;28;20206;-80
2021/10/04 04:28:35;;;;;;;7.90;7.10;;;;;;;10.29;85.04;99289.94;5041207;23;20284;-80
2021/10/04 04:31:05;;;;;;;7.87;7.07;;;;;;;10.25;84.59;99289.59;5029865;28;20251;-79
2021/10/04 04:33:35;;;;;;;8.53;7.70;;;;;;;10.19;84.63;99284.31;5015874;28;20225;-80
2021/10/04 04:36:09;;;;;;;7.83;6.90;;;;;;;10.25;84.73;99302.16;5016182;28;20227;-80
2021/10/04 04:38:36;;;;;;;7.97;6.70;;;;;;;10.25;83.85;99312.84;5038708;23;20234;-80
2021/10/04 04:41:03;;;;;;;9.23;6.67;;;;;;;10.13;84.03;99297.50;5016519;28;20221;-80
2021/10/04 04:43:30;;;;;;;7.93;7.13;;;;;;;10.14;84.55;99315.22;5032379;28;20237;-80
2021/10/04 04:45:58;;;;;;;7.73;6.87;;;;;;;10.16;84.66;99325.75;5040771;23;20226;-80
2021/10/04 04:48:28;;;;;;;8.83;6.77;;;;;;;10.13;84.75;99332.31;5017581;28;20191;-80
2021/10/04 04:51:03;;;;;;;7.27;6.57;;;;;;;10.10;84.76;99331.94;5030930;28;20234;-80
2021/10/04 04:53:31;;;;;;;7.43;6.73;;;;;;;10.13;84.75;99336.84;5014648;28;20223;-80
2021/10/04 04:56:00;;;;;;;8.83;7.07;;;;;;;10.08;84.82;99326.81;5008705;28;20570;-79
2021/10/04 04:58:30;;;;;;;7.03;6.33;;;;;;;10.00;84.92;99311.06;4995495;28;20254;-81
2021/10/04 05:01:00;;;;;;;8.63;7.67;;;;;;;10.10;84.83;99323.91;4980246;28;20226;-80
2021/10/04 05:03:27;;;;;;;8.10;7.20;;;;;;;10.14;84.75;99339.31;5012620;28;20211;-80
2021/10/04 05:06:19;;;;;;;7.83;7.03;;;;;;;10.17;84.88;99331.91;5013232;28;20237;-80
2021/10/04 05:08:45;;;;;;;8.40;7.30;;;;;;;10.15;84.82;99340.13;5039224;23;20215;-80
2021/10/04 05:11:18;;;;;;;7.50;6.80;;;;;;;10.13;84.52;99339.53;4997442;28;20227;-80
2021/10/04 05:14:00;;;;;;;7.30;6.60;;;;;;;10.18;84.21;99349.59;5032480;28;20233;-80
2021/10/04 05:16:27;;;;;;;8.33;7.37;;;;;;;10.22;84.22;99345.44;5031986;28;20231;-80
2021/10/04 05:18:58;;;;;;;8.60;7.13;;;;;;;10.27;84.17;99349.06;5013391;28;20226;-81
2021/10/04 05:21:29;;;;;;;9.00;7.53;;;;;;;10.22;84.00;99340.09;5031694;28;20234;-80
2021/10/04 05:23:55;;;;;;;7.87;6.87;;;;;;;10.36;84.03;99355.75;5031342;28;20230;-80
2021/10/04 05:26:25;;;;;;;7.73;6.80;;;;;;;10.41;84.37;99357.75;5032377;28;20247;-80
2021/10/04 05:29:09;;;;;;;9.03;7.37;;;;;;;10.43;83.90;99350.31;5016932;28;20226;-80
2021/10/04 05:31:44;;;;;;;8.47;7.37;;;;;;;10.52;83.94;99360.50;5014607;28;20207;-80
2021/10/04 05:34:15;;;;;;;8.33;7.43;;;;;;;10.64;83.99;99359.75;5030663;28;20261;-80
2021/10/04 05:36:43;;;;;;;8.60;7.77;;;;;;;10.75;84.11;99369.69;5028545;28;20225;-80
2021/10/04 05:39:14;;;;;;;8.67;7.40;;;;;;;10.74;83.45;99346.59;5029383;28;20254;-80
2021/10/04 05:41:41;;;;;;;8.73;7.63;;;;;;;10.97;83.47;99368.94;5031000;28;20245;-80
2021/10/04 05:44:13;;;;;;;9.10;8.20;;;;;;;11.05;83.04;99367.84;5030712;28;20242;-80
2021/10/04 05:46:42;;;;;;;10.63;7.80;;;;;;;11.11;83.15;99358.84;5030065;28;20280;-80
2021/10/04 05:49:09;;;;;;;11.10;8.53;;;;;;;11.28;83.39;99370.56;5037371;23;20242;-80
2021/10/04 05:51:38;;;;;;;13.20;8.00;;;;;;;11.49;82.95;99371.88;5012632;28;20273;-80
2021/10/04 05:54:09;;;;;;;10.50;8.07;;;;;;;11.68;82.47;99370.72;5027734;28;20234;-80
2021/10/04 05:56:43;;;;;;;8.73;7.73;;;;;;;11.72;82.19;99365.69;5028977;28;20226;-80
2021/10/04 05:59:11;;;;;;;11.17;8.70;;;;;;;11.91;82.36;99373.44;5030007;28;20234;-80
2021/10/04 06:01:41;;;;;;;10.13;9.13;;;;;;;11.99;82.72;99372.25;5013640;28;20239;-80
2021/10/04 06:04:10;;;;;;;10.20;9.10;;;;;;;12.25;82.76;99379.00;5031106;28;20257;-81
2021/10/04 06:06:38;;;;;;;10.27;9.27;;;;;;;12.55;82.54;99386.91;5031220;28;20233;-80
2021/10/04 06:09:06;;;;;;;9.97;8.70;;;;;;;12.79;81.77;99402.69;5032178;28;20227;-80
2021/10/04 06:11:48;;;;;;;10.83;9.73;;;;;;;12.96;81.48;99396.56;5032707;28;20186;-80
2021/10/04 06:14:18;;;;;;;10.50;9.40;;;;;;;13.17;81.23;99398.59;5039768;23;20202;-80
2021/10/04 06:16:48;;;;;;;11.43;9.73;;;;;;;13.26;80.60;99399.81;5016154;28;20234;-80
2021/10/04 06:19:17;;;;;;;15.83;11.27;;;;;;;13.45;80.87;99408.47;5031970;28;20211;-80
2021/10/04 06:21:47;;;;;;;28.03;12.73;;;;;;;13.61;80.87;99407.69;5031264;28;20649;-80
2021/10/04 06:24:14;;;;;;;18.23;12.83;;;;;;;13.75;80.84;99410.88;5046572;23;20237;-80
2021/10/04 06:26:54;;;;;;;50.17;13.10;;;;;;;13.74;80.23;99407.34;5014498;28;20270;-80
2021/10/04 06:29:24;;;;;;;60.90;13.70;;;;;;;13.93;80.26;99421.38;5038957;23;20210;-80
2021/10/04 06:31:56;;;;;;;19.07;13.10;;;;;;;14.03;80.24;99419.66;5032908;28;20225;-80
2021/10/04 06:34:51;;;;;;;20.00;14.73;;;;;;;14.31;80.11;99434.06;5017978;28;20284;-79
2021/10/04 06:37:23;;;;;;;19.07;13.60;;;;;;;14.41;78.86;99434.25;5030980;28;20222;-81
2021/10/04 06:39:51;;;;;;;18.93;13.40;;;;;;;14.49;79.89;99428.41;5022765;28;20238;-82
2021/10/04 06:42:18;;;;;;;19.70;14.20;;;;;;;14.69;79.67;99441.34;5000149;28;20258;-84
2021/10/04 06:44:45;;;;;;;31.33;14.10;;;;;;;14.81;77.63;99436.63;5000088;28;20650;-86
2021/10/04 06:47:12;;;;;;;17.37;13.37;;;;;;;14.75;77.73;99451.94;5003288;28;20240;-85
2021/10/04 06:49:38;;;;;;;16.13;13.40;;;;;;;14.80;77.52;99443.09;5000345;28;20584;-82
2021/10/04 06:52:05;;;;;;;18.33;13.27;;;;;;;14.72;76.95;99449.75;5016574;28;20310;-80
2021/10/04 06:54:33;;;;;;;39.50;14.17;;;;;;;14.62;78.12;99449.59;5016047;28;20642;-88
2021/10/04 06:57:01;;;;;;;37.83;13.70;;;;;;;14.72;77.05;99459.72;5004852;28;20255;-81
2021/10/04 06:59:29;;;;;;;49.53;14.27;;;;;;;14.91;76.46;99467.25;5021758;28;20232;-85
2021/10/04 07:01:56;;;;;;;17.03;13.70;;;;;;;14.96;76.23;99458.41;5017631;28;20311;-84
2021/10/04 07:04:23;;;;;;;26.50;14.43;;;;;;;14.91;76.51;99469.13;5015451;28;20247;-88
2021/10/04 07:06:49;;;;;;;19.63;14.40;;;;;;;14.85;77.06;99470.13;4983261;28;20563;-79
2021/10/04 07:09:16;;;;;;;33.23;14.20;;;;;;;15.04;76.33;99486.81;4999261;28;20658;-88
2021/10/04 07:11:43;;;;;;;16.03;13.47;;;;;;;15.23;76.07;99488.09;4999137;28;20241;-81
2021/10/04 07:14:10;;;;;;;42.53;14.90;;;;;;;15.29;75.63;99474.44;4998899;28;20255;-89
2021/10/04 07:16:37;;;;;;;26.37;14.20;;;;;;;15.38;75.16;99486.41;4998999;28;20307;-88
2021/10/04 07:19:04;;;;;;;58.17;14.70;;;;;;;15.22;76.00;99483.78;5015281;28;20321;-89
2021/10/04 07:21:32;;;;;;;15.80;13.60;;;;;;;15.43;75.58;99477.53;5015581;28;20244;-86
2021/10/04 07:23:59;;;;;;;14.77;13.37;;;;;;;15.73;74.66;99494.03;4999006;28;20240;-86
2021/10/04 07:26:27;;;;;;;13.70;12.30;;;;;;;15.95;74.29;99496.69;4982299;28;20279;-86
2021/10/04 07:28:53;;;;;;;20.03;13.53;;;;;;;16.06;72.95;99492.16;5016054;28;20253;-82
2021/10/04 07:31:20;;;;;;;15.40;13.80;;;;;;;16.13;73.39;99481.97;5015072;28;20234;-81
2021/10/04 07:33:47;;;;;;;16.10;14.53;;;;;;;16.37;72.10;99499.44;5015160;28;20236;-86
2021/10/04 07:36:14;;;;;;;15.27;13.63;;;;;;;16.44;72.03;99493.78;4998570;28;20539;-89
2021/10/04 07:38:41;;;;;;;16.50;14.50;;;;;;;16.34;71.79;99493.72;4998628;28;20284;-85
2021/10/04 07:41:08;;;;;;;15.10;13.50;;;;;;;16.27;71.74;99502.88;5015061;28;20234;-88
2021/10/04 07:43:35;;;;;;;15.33;13.60;;;;;;;16.11;72.71;99503.00;4998769;28;20632;-90
2021/10/04 07:46:06;;;;;;;14.80;13.30;;;;;;;16.10;73.30;99506.78;5015483;28;20230;-90
2021/10/04 07:48:33;;;;;;;14.60;13.00;;;;;;;15.98;74.86;99508.84;4998989;28;20227;-85
2021/10/04 07:51:01;;;;;;;15.67;12.40;;;;;;;15.94;73.45;99513.97;4998190;28;20661;-82
2021/10/04 07:53:27;;;;;;;13.70;12.27;;;;;;;15.93;75.00;99493.41;4981839;28;20650;-88
2021/10/04 07:55:55;;;;;;;12.30;11.10;;;;;;;15.97;74.77;99504.50;5014947;28;20671;-83
2021/10/04 07:58:22;;;;;;;16.03;12.57;;;;;;;16.09;74.02;99513.28;5014621;28;20683;-86
2021/10/04 08:00:49;;;;;;;13.53;12.13;;;;;;;16.15;73.41;99509.53;4982249;28;20229;-84
2021/10/04 08:03:16;;;;;;;12.63;11.30;;;;;;;16.22;74.15;99510.13;4998257;28;20233;-89
2021/10/04 08:05:43;;;;;;;12.13;10.93;;;;;;;16.32;74.56;99521.03;4982113;28;20229;-90
2021/10/04 08:08:09;;;;;;;12.70;10.60;;;;;;;16.40;74.29;99508.91;5014477;28;20262;-87
2021/10/04 08:10:36;;;;;;;12.27;10.77;;;;;;;16.45;73.49;99500.81;4982199;28;20729;-83
2021/10/04 08:13:05;;;;;;;11.90;10.70;;;;;;;16.52;73.46;99504.91;4998083;28;20653;-89
2021/10/04 08:15:32;;;;;;;12.13;10.90;;;;;;;16.58;72.97;99494.97;4998405;28;20623;-89
2021/10/04 08:17:59;;;;;;;11.43;10.23;;;;;;;16.60;73.50;99500.97;4998030;28;20289;-84
2021/10/04 08:20:26;;;;;;;11.87;10.53;;;;;;;16.64;72.92;99500.19;4995826;28;20539;-86
2021/10/04 08:22:53;;;;;;;12.30;11.03;;;;;;;16.78;72.65;99515.94;4993893;28;20234;-88
2021/10/04 08:25:20;;;;;;;12.80;10.93;;;;;;;16.93;72.10;99508.72;4982269;28;20223;-83
2021/10/04 08:27:47;;;;;;;11.70;10.50;;;;;;;16.91;72.51;99501.91;4978641;28;20231;-81
2021/10/04 08:30:14;;;;;;;11.57;10.33;;;;;;;17.05;72.34;99500.34;4965154;28;20215;-86
2021/10/04 08:32:41;;;;;;;11.63;10.43;;;;;;;16.92;72.49;99490.03;4983345;28;20250;-86
2021/10/04 08:35:08;;;;;;;11.30;10.10;;;;;;;17.12;72.24;99496.31;4963547;28;20232;-90
2021/10/04 08:37:35;;;;;;;11.13;9.60;;;;;;;17.28;72.00;99508.03;4964888;28;20231;-88
2021/10/04 08:40:08;;;;;;;12.97;9.07;;;;;;;17.46;71.85;99502.09;4993755;28;20238;-81
2021/10/04 08:42:35;;;;;;;10.63;9.53;;;;;;;17.66;71.61;99504.09;4962591;28;20235;-90
2021/10/04 08:45:03;;;;;;;10.77;9.67;;;;;;;17.78;70.28;99501.09;4977846;28;20241;-90
2021/10/04 08:47:31;;;;;;;10.97;9.73;;;;;;;17.90;70.21;99491.66;4981114;28;20710;-83
2021/10/04 08:49:57;;;;;;;12.77;10.30;;;;;;;18.13;69.23;99494.91;4981286;28;20233;-88
2021/10/04 08:52:24;;;;;;;11.07;9.93;;;;;;;18.25;68.01;99500.84;4995434;28;20313;-85
2021/10/04 08:54:51;;;;;;;10.00;8.87;;;;;;;18.37;67.76;99495.97;4981465;28;20253;-84
2021/10/04 08:57:18;;;;;;;10.33;9.23;;;;;;;18.41;67.85;99488.91;4977431;28;20235;-83
2021/10/04 08:59:44;;;;;;;10.07;9.07;;;;;;;18.47;68.02;99494.06;4978293;28;20573;-88
2021/10/04 09:02:28;;;;;;;12.47;9.80;;;;;;;18.54;67.56;99491.06;4995432;28;20241;-82
2021/10/04 09:05:14;;;;;;;14.20;9.63;;;;;;;18.64;66.79;99491.03;4978411;28;20242;-88
2021/10/04 09:07:46;;;;;;;11.17;9.67;;;;;;;18.80;66.42;99495.31;4995476;28;20238;-85
2021/10/04 09:10:16;;;;;;;12.07;10.13;;;;;;;18.88;65.97;99483.91;4961792;28;20647;-90
2021/10/04 09:12:46;;;;;;;10.77;9.67;;;;;;;18.98;66.36;99491.22;4979822;28;20556;-82
2021/10/04 09:15:25;;;;;;;9.70;8.70;;;;;;;19.13;65.69;99493.06;4980140;28;20231;-84
2021/10/04 09:17:52;;;;;;;13.03;9.33;;;;;;;19.26;64.30;99479.69;5017332;28;20226;-88
2021/10/04 09:20:19;;;;;;;12.83;9.40;;;;;;;19.39;64.21;99480.97;4994899;28;20232;-87
2021/10/04 09:22:46;;;;;;;10.33;8.87;;;;;;;19.51;63.56;99478.72;5004459;28;20237;-88
2021/10/04 09:25:13;;;;;;;10.30;9.30;;;;;;;19.67;63.55;99477.53;5004313;28;20234;-89
2021/10/04 09:27:45;;;;;;;10.70;9.57;;;;;;;19.78;62.62;99489.16;5001141;28;20235;-89
2021/10/04 09:30:27;;;;;;;10.83;9.77;;;;;;;19.91;61.74;99495.84;4978203;28;20238;-89
2021/10/04 09:33:02;;;;;;;10.63;9.63;;;;;;;19.86;62.21;99494.00;5009513;28;20307;-85
2021/10/04 09:35:31;;;;;;;11.50;9.87;;;;;;;19.79;62.28;99493.47;4983045;28;20308;-89
2021/10/04 09:37:57;;;;;;;10.83;8.80;;;;;;;19.89;62.69;99498.03;4977624;28;20235;-87
2021/10/04 09:40:35;;;;;;;10.33;9.33;;;;;;;19.78;63.11;99500.03;5015385;28;20626;-88
2021/10/04 09:43:08;;;;;;;10.73;9.63;;;;;;;19.89;62.43;99500.75;4968696;28;20531;-84
2021/10/04 09:45:35;;;;;;;10.00;9.10;;;;;;;20.16;61.06;99491.00;4984006;28;20230;-83
2021/10/04 09:48:10;;;;;;;9.63;8.63;;;;;;;20.34;60.10;99494.16;5017326;28;20226;-87
2021/10/04 09:50:37;;;;;;;11.13;8.37;;;;;;;20.44;60.04;99492.13;4963578;28;20219;-82
2021/10/04 09:53:09;;;;;;;10.10;8.90;;;;;;;20.34;60.56;99472.41;4992272;28;20293;-85
2021/10/04 09:55:37;;;;;;;9.43;8.53;;;;;;;20.47;61.38;99482.59;4964826;28;20227;-88
2021/10/04 09:58:13;;;;;;;10.73;9.10;;;;;;;20.66;59.73;99486.22;4980710;28;20235;-88
2021/10/04 10:00:45;;;;;;;9.20;8.30;;;;;;;20.58;59.22;99487.63;4998215;28;20279;-85
2021/10/04 10:03:14;;;;;;;9.63;8.73;;;;;;;20.80;58.82;99481.69;4964938;28;20228;-88
2021/10/04 10:05:43;;;;;;;12.27;9.00;;;;;;;20.88;59.06;99486.50;4980526;28;20711;-85
2021/10/04 10:08:10;;;;;;;11.47;8.27;;;;;;;20.94;59.09;99489.97;4964891;28;20229;-84
2021/10/04 10:10:40;;;;;;;12.50;8.77;;;;;;;21.06;58.83;99493.09;4980997;28;20232;-84
2021/10/04 10:13:08;;;;;;;9.53;8.60;;;;;;;21.15;57.87;99475.03;4980902;28;20535;-87
2021/10/04 10:15:36;;;;;;;8.63;7.83;;;;;;;21.38;56.72;99495.13;4996859;28;20261;-86
2021/10/04 10:18:10;;;;;;;10.27;8.03;;;;;;;21.46;56.95;99486.34;4964292;28;20261;-83
2021/10/04 10:20:37;;;;;;;9.93;8.10;;;;;;;21.59;56.34;99490.22;4980849;28;20226;-87
2021/10/04 10:23:04;;;;;;;10.07;8.27;;;;;;;21.65;56.48;99500.75;4980654;28;20226;-86
2021/10/04 10:25:37;;;;;;;11.60;8.67;;;;;;;21.52;56.92;99485.13;4997698;28;20245;-85
2021/10/04 10:28:25;;;;;;;9.43;8.13;;;;;;;21.74;56.44;99484.56;4979995;28;20253;-84
2021/10/04 10:30:53;;;;;;;7.83;7.20;;;;;;;21.85;57.35;99491.44;4997548;28;20230;-82
2021/10/04 10:33:43;;;;;;;8.83;7.67;;;;;;;22.12;56.61;99488.84;4980521;28;20225;-82
2021/10/04 10:36:10;;;;;;;9.67;7.93;;;;;;;22.22;56.89;99493.31;4980141;28;20537;-86
2021/10/04 10:38:57;;;;;;;8.00;7.17;;;;;;;22.39;56.67;99496.31;4980319;28;20227;-87
2021/10/04 10:41:24;;;;;;;8.03;7.33;;;;;;;22.32;56.81;99488.50;4964454;28;20231;-83
2021/10/04 10:44:05;;;;;;;8.03;7.13;;;;;;;22.44;56.51;99498.16;4980190;28;20234;-87
2021/10/04 10:46:51;;;;;;;7.77;7.03;;;;;;;22.51;56.10;99485.72;4999609;28;20255;-86
2021/10/04 10:49:55;;;;;;;7.67;6.97;;;;;;;22.69;56.00;99487.53;4989159;28;20257;-85
2021/10/04 10:52:28;;;;;;;7.50;6.80;;;;;;;22.97;55.72;99490.31;4997142;28;20247;-83
2021/10/04 10:54:55;;;;;;;8.00;7.20;;;;;;;22.99;55.43;99477.97;4980079;28;20223;-85
2021/10/04 10:57:43;;;;;;;7.73;7.00;;;;;;;23.03;55.10;99484.44;4979704;28;20646;-86
2021/10/04 11:00:23;;;;;;;7.57;6.97;;;;;;;23.06;54.42;99469.34;4996007;28;20237;-82
2021/10/04 11:03:16;;;;;;;7.33;6.63;;;;;;;23.26;54.62;99468.94;4979900;28;20229;-84
2021/10/04 11:05:43;;;;;;;7.67;6.33;;;;;;;23.27;53.60;99460.44;4963915;28;20261;-86
2021/10/04 11:08:15;;;;;;;7.17;6.50;;;;;;;23.37;52.87;99461.31;4996406;28;20235;-83
2021/10/04 11:10:48;;;;;;;8.03;7.13;;;;;;;23.47;52.74;99458.41;4996310;28;20639;-86
2021/10/04 11:13:23;;;;;;;7.15;6.47;;;;;;;23.58;52.79;99463.31;4996748;28;20269;-82
2021/10/04 11:15:52;;;;;;;8.68;6.15;;;;;;;23.64;52.65;99451.13;4979474;28;20238;-86
2021/10/04 11:18:20;;;;;;;7.22;6.10;;;;;;;23.84;52.11;99446.28;4979107;28;20318;-87
2021/10/04 11:20:47;;;;;;;6.57;5.97;;;;;;;23.81;51.86;99446.91;4995412;28;20538;-86
2021/10/04 11:23:19;;;;;;;6.50;5.90;;;;;;;23.74;51.73;99441.88;4979405;28;20244;-86
2021/10/04 11:25:48;;;;;;;6.82;6.07;;;;;;;24.01;50.91;99444.47;4994837;28;20235;-82
2021/10/04 11:28:21;;;;;;;6.70;5.78;;;;;;;24.02;51.11;99440.63;4963306;28;20230;-85
2021/10/04 11:31:02;;;;;;;5.97;5.47;;;;;;;24.11;50.08;99433.28;4995416;28;20231;-82
2021/10/04 11:33:33;;;;;;;7.45;6.18;;;;;;;24.19;49.70;99428.19;4963333;28;20227;-83
2021/10/04 11:36:04;;;;;;;6.85;6.10;;;;;;;24.16;50.09;99421.41;4981912;28;20235;-86
2021/10/04 11:38:35;;;;;;;6.40;5.80;;;;;;;24.32;49.42;99424.53;4998309;28;20249;-86
2021/10/04 11:41:02;;;;;;;6.07;5.47;;;;;;;24.39;48.81;99414.78;4982239;28;20574;-82
2021/10/04 11:43:30;;;;;;;5.97;5.38;;;;;;;24.14;48.86;99426.34;4998565;28;20229;-86
2021/10/04 11:45:57;;;;;;;5.97;5.38;;;;;;;24.27;48.72;99419.19;4982407;28;20238;-87